Burkesville, Kentucky
Current Conditions -  °F | °C
As of 1:56 PM on Friday 28 Nov 2014 (Local Time) from KEKQ Reporting Station
Clear Clear  
Wind Chill: 38°   Ceiling: Unl
Heat Index: 42°   Visibility: 10mi
Dew Point: 18°   Wind: 6mph
Humidity: 38%   Direction: 190°S
Pressure: 30.3"   Gusts: NA
Location:  36.79°N, 85.37°W
Report Text: KEKQ 281956Z AUTO 19005KT 10SM CLR 06/M08 A3030 RMK AO2 T00551077 SLP269
Loading
Personal Weather Stations






























Interactive Weather Map New forecast layout! Learn more

10-Day Weather Forecast

Advertisements
Track Severe Weather on mobile